THU weather

Thule Air Base
Thule, Greenland

Public forecast

Using degrees Celsius for public forecast. Weather courtesy of forecast.io.

METAR (pilot weather report)

Retrieved 2019/04/24 08:56 UTC (49 minutes ago):

BGTL 240856Z AUTO 11008KT 9999 CLR M17/M20 A2977 RMK AO2 SLP071 T11751197 51006 TSNO $

TAF (pilot weather forecast)

Retrieved 2019/04/24 09:03 UTC (42 minutes ago):

TAF BGTL 240900Z 2409/2515 10009KT 9999 SCT080 BKN180 QNH2965INS TXM10/2421Z TNM20/2506Z